sensor_id;sensor_type;location;lat;lon;timestamp;P1;durP1;ratioP1;P2;durP2;ratioP2
74401;SDS011;62837;51.082;13.744;2024-01-16T00:02:19;1999.90;;;999.90;;
74401;SDS011;62837;51.082;13.744;2024-01-16T00:04:50;1999.90;;;999.90;;
74401;SDS011;62837;51.082;13.744;2024-01-16T00:07:21;1999.90;;;999.90;;
74401;SDS011;62837;51.082;13.744;2024-01-16T00:09:52;1999.90;;;999.90;;
74401;SDS011;62837;51.082;13.744;2024-01-16T00:12:23;1999.90;;;999.90;;
74401;SDS011;62837;51.082;13.744;2024-01-16T00:14:54;1999.90;;;999.90;;
74401;SDS011;62837;51.082;13.744;2024-01-16T00:17:25;1999.90;;;999.90;;
74401;SDS011;62837;51.082;13.744;2024-01-16T00:19:56;1999.90;;;999.90;;
74401;SDS011;62837;51.082;13.744;2024-01-16T00:22:28;1999.90;;;999.90;;
74401;SDS011;62837;51.082;13.744;2024-01-16T00:24:59;1999.90;;;999.90;;
74401;SDS011;62837;51.082;13.744;2024-01-16T00:27:30;1999.90;;;999.90;;
74401;SDS011;62837;51.082;13.744;2024-01-16T00:30:01;1999.90;;;999.90;;
74401;SDS011;62837;51.082;13.744;2024-01-16T00:32:34;1999.90;;;999.90;;
74401;SDS011;62837;51.082;13.744;2024-01-16T00:35:06;1999.90;;;999.90;;
74401;SDS011;62837;51.082;13.744;2024-01-16T00:37:37;1999.90;;;999.90;;
74401;SDS011;62837;51.082;13.744;2024-01-16T00:40:09;1999.90;;;999.90;;
74401;SDS011;62837;51.082;13.744;2024-01-16T00:42:41;1999.90;;;999.90;;
74401;SDS011;62837;51.082;13.744;2024-01-16T00:45:12;1999.90;;;999.90;;
74401;SDS011;62837;51.082;13.744;2024-01-16T00:47:43;1999.90;;;999.90;;
74401;SDS011;62837;51.082;13.744;2024-01-16T00:50:14;1999.90;;;999.90;;
74401;SDS011;62837;51.082;13.744;2024-01-16T00:52:45;1999.90;;;999.90;;
74401;SDS011;62837;51.082;13.744;2024-01-16T00:55:16;1999.90;;;999.90;;
74401;SDS011;62837;51.082;13.744;2024-01-16T00:57:47;1999.90;;;999.90;;
74401;SDS011;62837;51.082;13.744;2024-01-16T01:00:18;1999.90;;;999.90;;
74401;SDS011;62837;51.082;13.744;2024-01-16T01:02:49;1999.90;;;999.90;;
74401;SDS011;62837;51.082;13.744;2024-01-16T01:05:20;1999.90;;;999.90;;
74401;SDS011;62837;51.082;13.744;2024-01-16T01:07:56;1999.90;;;999.90;;
74401;SDS011;62837;51.082;13.744;2024-01-16T01:10:27;1999.90;;;999.90;;
74401;SDS011;62837;51.082;13.744;2024-01-16T01:12:58;1999.90;;;999.90;;
74401;SDS011;62837;51.082;13.744;2024-01-16T01:15:29;1999.90;;;999.90;;
74401;SDS011;62837;51.082;13.744;2024-01-16T01:18:00;1999.90;;;999.90;;
74401;SDS011;62837;51.082;13.744;2024-01-16T01:20:32;1999.90;;;999.90;;
74401;SDS011;62837;51.082;13.744;2024-01-16T01:23:03;1999.90;;;999.90;;
74401;SDS011;62837;51.082;13.744;2024-01-16T01:25:34;1999.90;;;999.90;;
74401;SDS011;62837;51.082;13.744;2024-01-16T01:28:06;1999.90;;;999.90;;
74401;SDS011;62837;51.082;13.744;2024-01-16T01:30:37;1999.90;;;999.90;;
74401;SDS011;62837;51.082;13.744;2024-01-16T01:33:08;1999.90;;;999.90;;
74401;SDS011;62837;51.082;13.744;2024-01-16T01:35:40;1999.90;;;999.90;;
74401;SDS011;62837;51.082;13.744;2024-01-16T01:38:11;1999.90;;;999.90;;
74401;SDS011;62837;51.082;13.744;2024-01-16T01:40:42;1999.90;;;999.90;;
74401;SDS011;62837;51.082;13.744;2024-01-16T01:43:20;1999.90;;;999.90;;
74401;SDS011;62837;51.082;13.744;2024-01-16T01:46:09;1999.90;;;999.90;;
74401;SDS011;62837;51.082;13.744;2024-01-16T01:48:42;1999.90;;;999.90;;
74401;SDS011;62837;51.082;13.744;2024-01-16T01:51:17;1999.90;;;999.90;;
74401;SDS011;62837;51.082;13.744;2024-01-16T01:53:49;1999.90;;;999.90;;
74401;SDS011;62837;51.082;13.744;2024-01-16T01:56:21;1999.90;;;999.90;;
74401;SDS011;62837;51.082;13.744;2024-01-16T01:58:53;1999.90;;;999.90;;
74401;SDS011;62837;51.082;13.744;2024-01-16T02:01:28;1999.90;;;999.90;;
74401;SDS011;62837;51.082;13.744;2024-01-16T02:04:01;1999.90;;;999.90;;
74401;SDS011;62837;51.082;13.744;2024-01-16T02:06:33;1999.90;;;999.90;;
74401;SDS011;62837;51.082;13.744;2024-01-16T02:09:04;1999.90;;;999.90;;
74401;SDS011;62837;51.082;13.744;2024-01-16T02:11:36;1999.90;;;999.90;;
74401;SDS011;62837;51.082;13.744;2024-01-16T02:14:07;1999.90;;;999.90;;
74401;SDS011;62837;51.082;13.744;2024-01-16T02:16:39;1999.90;;;999.90;;
74401;SDS011;62837;51.082;13.744;2024-01-16T02:19:12;1999.90;;;999.90;;
74401;SDS011;62837;51.082;13.744;2024-01-16T02:21:46;1999.90;;;999.90;;
74401;SDS011;62837;51.082;13.744;2024-01-16T02:24:18;1999.90;;;999.90;;
74401;SDS011;62837;51.082;13.744;2024-01-16T02:26:50;1999.90;;;999.90;;
74401;SDS011;62837;51.082;13.744;2024-01-16T02:29:22;1999.90;;;999.90;;
74401;SDS011;62837;51.082;13.744;2024-01-16T02:31:53;1999.90;;;999.90;;
74401;SDS011;62837;51.082;13.744;2024-01-16T02:34:24;1999.90;;;999.90;;
74401;SDS011;62837;51.082;13.744;2024-01-16T02:36:55;1999.90;;;999.90;;
74401;SDS011;62837;51.082;13.744;2024-01-16T02:39:26;1999.90;;;999.90;;
74401;SDS011;62837;51.082;13.744;2024-01-16T02:41:57;1999.90;;;999.90;;
74401;SDS011;62837;51.082;13.744;2024-01-16T02:44:28;1999.90;;;999.90;;
74401;SDS011;62837;51.082;13.744;2024-01-16T02:46:59;1999.90;;;999.90;;
74401;SDS011;62837;51.082;13.744;2024-01-16T02:49:30;1999.90;;;999.90;;
74401;SDS011;62837;51.082;13.744;2024-01-16T02:52:02;1999.90;;;999.90;;
74401;SDS011;62837;51.082;13.744;2024-01-16T02:54:34;1999.90;;;999.90;;
74401;SDS011;62837;51.082;13.744;2024-01-16T02:57:05;1999.90;;;999.90;;
74401;SDS011;62837;51.082;13.744;2024-01-16T02:59:35;1999.90;;;999.90;;
74401;SDS011;62837;51.082;13.744;2024-01-16T03:02:06;1999.90;;;999.90;;
74401;SDS011;62837;51.082;13.744;2024-01-16T03:04:37;1999.90;;;999.90;;
74401;SDS011;62837;51.082;13.744;2024-01-16T03:07:08;1999.90;;;999.90;;
74401;SDS011;62837;51.082;13.744;2024-01-16T03:09:39;1999.90;;;999.90;;
74401;SDS011;62837;51.082;13.744;2024-01-16T03:12:10;1999.90;;;999.90;;
74401;SDS011;62837;51.082;13.744;2024-01-16T03:14:41;1999.90;;;999.90;;
74401;SDS011;62837;51.082;13.744;2024-01-16T03:17:13;1999.90;;;999.90;;
74401;SDS011;62837;51.082;13.744;2024-01-16T03:19:44;1999.90;;;999.90;;
74401;SDS011;62837;51.082;13.744;2024-01-16T03:22:14;1999.90;;;999.90;;
74401;SDS011;62837;51.082;13.744;2024-01-16T03:24:46;1999.90;;;999.90;;
74401;SDS011;62837;51.082;13.744;2024-01-16T03:27:18;1999.90;;;999.90;;
74401;SDS011;62837;51.082;13.744;2024-01-16T03:29:48;1999.90;;;999.90;;
74401;SDS011;62837;51.082;13.744;2024-01-16T03:32:19;1999.90;;;999.90;;
74401;SDS011;62837;51.082;13.744;2024-01-16T03:34:51;1999.90;;;999.90;;
74401;SDS011;62837;51.082;13.744;2024-01-16T03:37:22;1999.90;;;999.90;;
74401;SDS011;62837;51.082;13.744;2024-01-16T03:39:52;1999.90;;;999.90;;
74401;SDS011;62837;51.082;13.744;2024-01-16T03:42:24;1999.90;;;999.90;;
74401;SDS011;62837;51.082;13.744;2024-01-16T03:44:55;1999.90;;;999.90;;
74401;SDS011;62837;51.082;13.744;2024-01-16T03:47:26;1999.90;;;999.90;;
74401;SDS011;62837;51.082;13.744;2024-01-16T03:49:57;1999.90;;;999.90;;
74401;SDS011;62837;51.082;13.744;2024-01-16T03:52:28;1999.90;;;999.90;;
74401;SDS011;62837;51.082;13.744;2024-01-16T03:54:59;1999.90;;;999.90;;
74401;SDS011;62837;51.082;13.744;2024-01-16T03:57:31;1999.90;;;999.90;;
74401;SDS011;62837;51.082;13.744;2024-01-16T04:00:02;1999.90;;;999.90;;
74401;SDS011;62837;51.082;13.744;2024-01-16T04:02:35;1999.90;;;999.90;;
74401;SDS011;62837;51.082;13.744;2024-01-16T04:05:08;1999.90;;;999.90;;
74401;SDS011;62837;51.082;13.744;2024-01-16T04:07:39;1999.90;;;999.90;;
74401;SDS011;62837;51.082;13.744;2024-01-16T04:10:10;1999.90;;;999.90;;
74401;SDS011;62837;51.082;13.744;2024-01-16T04:12:41;1999.90;;;999.90;;
74401;SDS011;62837;51.082;13.744;2024-01-16T04:15:12;1999.90;;;999.90;;
74401;SDS011;62837;51.082;13.744;2024-01-16T04:17:42;1999.90;;;999.90;;
74401;SDS011;62837;51.082;13.744;2024-01-16T04:20:14;1999.90;;;999.90;;
74401;SDS011;62837;51.082;13.744;2024-01-16T04:22:45;1999.90;;;999.90;;
74401;SDS011;62837;51.082;13.744;2024-01-16T04:25:16;1999.90;;;999.90;;
74401;SDS011;62837;51.082;13.744;2024-01-16T04:27:47;1999.90;;;999.90;;
74401;SDS011;62837;51.082;13.744;2024-01-16T04:30:18;1999.90;;;999.90;;
74401;SDS011;62837;51.082;13.744;2024-01-16T04:32:49;1999.90;;;999.90;;
74401;SDS011;62837;51.082;13.744;2024-01-16T04:35:20;1999.90;;;999.90;;
74401;SDS011;62837;51.082;13.744;2024-01-16T04:37:51;1999.90;;;999.90;;
74401;SDS011;62837;51.082;13.744;2024-01-16T04:40:22;1999.90;;;999.90;;
74401;SDS011;62837;51.082;13.744;2024-01-16T04:42:53;1999.90;;;999.90;;
74401;SDS011;62837;51.082;13.744;2024-01-16T04:45:24;1999.90;;;999.90;;
74401;SDS011;62837;51.082;13.744;2024-01-16T04:47:54;1999.90;;;999.90;;
74401;SDS011;62837;51.082;13.744;2024-01-16T04:50:25;1999.90;;;999.90;;
74401;SDS011;62837;51.082;13.744;2024-01-16T04:53:00;1999.90;;;999.90;;
74401;SDS011;62837;51.082;13.744;2024-01-16T04:55:31;1999.90;;;999.90;;
74401;SDS011;62837;51.082;13.744;2024-01-16T04:58:03;1999.90;;;999.90;;
74401;SDS011;62837;51.082;13.744;2024-01-16T05:00:33;1999.90;;;999.90;;
74401;SDS011;62837;51.082;13.744;2024-01-16T05:03:05;1999.90;;;999.90;;
74401;SDS011;62837;51.082;13.744;2024-01-16T05:05:36;1999.90;;;999.90;;
74401;SDS011;62837;51.082;13.744;2024-01-16T05:08:07;1999.90;;;999.90;;
74401;SDS011;62837;51.082;13.744;2024-01-16T05:10:38;1999.90;;;999.90;;
74401;SDS011;62837;51.082;13.744;2024-01-16T05:13:12;1999.90;;;999.90;;
74401;SDS011;62837;51.082;13.744;2024-01-16T05:15:43;1999.90;;;999.90;;
74401;SDS011;62837;51.082;13.744;2024-01-16T05:18:14;1999.90;;;999.90;;
74401;SDS011;62837;51.082;13.744;2024-01-16T05:20:45;1999.90;;;999.90;;
74401;SDS011;62837;51.082;13.744;2024-01-16T05:23:16;1999.90;;;999.90;;
74401;SDS011;62837;51.082;13.744;2024-01-16T05:25:47;1999.90;;;999.90;;
74401;SDS011;62837;51.082;13.744;2024-01-16T05:28:18;1999.90;;;999.90;;
74401;SDS011;62837;51.082;13.744;2024-01-16T05:30:49;1999.90;;;999.90;;
74401;SDS011;62837;51.082;13.744;2024-01-16T05:33:20;1999.90;;;999.90;;
74401;SDS011;62837;51.082;13.744;2024-01-16T05:35:51;1999.90;;;999.90;;
74401;SDS011;62837;51.082;13.744;2024-01-16T05:38:22;1999.90;;;999.90;;
74401;SDS011;62837;51.082;13.744;2024-01-16T05:40:53;1999.90;;;999.90;;
74401;SDS011;62837;51.082;13.744;2024-01-16T05:43:24;1999.90;;;999.90;;
74401;SDS011;62837;51.082;13.744;2024-01-16T05:45:56;1999.90;;;999.90;;
74401;SDS011;62837;51.082;13.744;2024-01-16T05:48:28;1999.90;;;999.90;;
74401;SDS011;62837;51.082;13.744;2024-01-16T05:50:59;1999.90;;;999.90;;
74401;SDS011;62837;51.082;13.744;2024-01-16T05:53:30;1999.90;;;999.90;;
74401;SDS011;62837;51.082;13.744;2024-01-16T05:56:02;1999.90;;;999.90;;
74401;SDS011;62837;51.082;13.744;2024-01-16T05:58:34;1999.90;;;999.90;;
74401;SDS011;62837;51.082;13.744;2024-01-16T06:01:07;1999.90;;;999.90;;
74401;SDS011;62837;51.082;13.744;2024-01-16T06:03:41;1999.90;;;999.90;;
74401;SDS011;62837;51.082;13.744;2024-01-16T06:06:14;1999.90;;;999.90;;
74401;SDS011;62837;51.082;13.744;2024-01-16T06:08:46;1999.90;;;999.90;;
74401;SDS011;62837;51.082;13.744;2024-01-16T06:11:17;1999.90;;;999.90;;
74401;SDS011;62837;51.082;13.744;2024-01-16T06:13:48;1999.90;;;999.90;;
74401;SDS011;62837;51.082;13.744;2024-01-16T06:16:19;1999.90;;;999.90;;
74401;SDS011;62837;51.082;13.744;2024-01-16T06:18:50;1999.90;;;999.90;;
74401;SDS011;62837;51.082;13.744;2024-01-16T06:21:21;1999.90;;;999.90;;
74401;SDS011;62837;51.082;13.744;2024-01-16T06:23:52;1999.90;;;999.90;;
74401;SDS011;62837;51.082;13.744;2024-01-16T06:26:23;1999.90;;;999.90;;
74401;SDS011;62837;51.082;13.744;2024-01-16T06:28:54;1999.90;;;999.90;;
74401;SDS011;62837;51.082;13.744;2024-01-16T06:31:25;1999.90;;;999.90;;
74401;SDS011;62837;51.082;13.744;2024-01-16T06:33:56;1999.90;;;999.90;;
74401;SDS011;62837;51.082;13.744;2024-01-16T06:36:27;1999.90;;;999.90;;
74401;SDS011;62837;51.082;13.744;2024-01-16T06:38:58;1999.90;;;999.90;;
74401;SDS011;62837;51.082;13.744;2024-01-16T06:41:29;1999.90;;;999.90;;
74401;SDS011;62837;51.082;13.744;2024-01-16T06:44:00;1999.90;;;999.90;;
74401;SDS011;62837;51.082;13.744;2024-01-16T06:46:30;1999.90;;;999.90;;
74401;SDS011;62837;51.082;13.744;2024-01-16T06:49:02;1999.90;;;999.90;;
74401;SDS011;62837;51.082;13.744;2024-01-16T06:51:34;1999.90;;;999.90;;
74401;SDS011;62837;51.082;13.744;2024-01-16T06:54:05;1999.90;;;999.90;;
74401;SDS011;62837;51.082;13.744;2024-01-16T06:56:36;1999.90;;;999.90;;
74401;SDS011;62837;51.082;13.744;2024-01-16T06:59:07;1999.90;;;999.90;;
74401;SDS011;62837;51.082;13.744;2024-01-16T07:01:39;1999.90;;;999.90;;
74401;SDS011;62837;51.082;13.744;2024-01-16T07:04:10;1999.90;;;999.90;;
74401;SDS011;62837;51.082;13.744;2024-01-16T07:06:42;1999.90;;;999.90;;
74401;SDS011;62837;51.082;13.744;2024-01-16T07:09:13;1999.90;;;999.90;;
74401;SDS011;62837;51.082;13.744;2024-01-16T07:11:46;1999.90;;;999.90;;
74401;SDS011;62837;51.082;13.744;2024-01-16T07:14:17;1999.90;;;999.90;;
74401;SDS011;62837;51.082;13.744;2024-01-16T07:16:48;1999.90;;;999.90;;
74401;SDS011;62837;51.082;13.744;2024-01-16T07:19:19;1999.90;;;999.90;;
74401;SDS011;62837;51.082;13.744;2024-01-16T07:21:50;1999.90;;;999.90;;
74401;SDS011;62837;51.082;13.744;2024-01-16T07:24:21;1999.90;;;999.90;;
74401;SDS011;62837;51.082;13.744;2024-01-16T07:26:52;1999.90;;;999.90;;
74401;SDS011;62837;51.082;13.744;2024-01-16T07:29:24;1999.90;;;999.90;;
74401;SDS011;62837;51.082;13.744;2024-01-16T07:31:55;1999.90;;;999.90;;
74401;SDS011;62837;51.082;13.744;2024-01-16T07:34:25;1999.90;;;999.90;;
74401;SDS011;62837;51.082;13.744;2024-01-16T07:36:57;1999.90;;;999.90;;
74401;SDS011;62837;51.082;13.744;2024-01-16T07:39:27;1999.90;;;999.90;;
74401;SDS011;62837;51.082;13.744;2024-01-16T07:41:58;1999.90;;;999.90;;
74401;SDS011;62837;51.082;13.744;2024-01-16T07:44:29;1999.90;;;999.90;;
74401;SDS011;62837;51.082;13.744;2024-01-16T07:47:00;1999.90;;;999.90;;
74401;SDS011;62837;51.082;13.744;2024-01-16T07:49:31;1999.90;;;999.90;;
74401;SDS011;62837;51.082;13.744;2024-01-16T07:52:02;1999.90;;;999.90;;
74401;SDS011;62837;51.082;13.744;2024-01-16T07:54:34;1999.90;;;999.90;;
74401;SDS011;62837;51.082;13.744;2024-01-16T07:57:05;1999.90;;;999.90;;
74401;SDS011;62837;51.082;13.744;2024-01-16T07:59:36;1999.90;;;999.90;;
74401;SDS011;62837;51.082;13.744;2024-01-16T08:02:09;1999.90;;;999.90;;
74401;SDS011;62837;51.082;13.744;2024-01-16T08:04:39;1999.90;;;999.90;;
74401;SDS011;62837;51.082;13.744;2024-01-16T08:07:10;1999.90;;;999.90;;
74401;SDS011;62837;51.082;13.744;2024-01-16T08:09:41;1999.90;;;999.90;;
74401;SDS011;62837;51.082;13.744;2024-01-16T08:12:12;1999.90;;;999.90;;
74401;SDS011;62837;51.082;13.744;2024-01-16T08:14:43;1999.90;;;999.90;;
74401;SDS011;62837;51.082;13.744;2024-01-16T08:17:15;1999.90;;;999.90;;
74401;SDS011;62837;51.082;13.744;2024-01-16T08:19:46;1999.90;;;999.90;;
74401;SDS011;62837;51.082;13.744;2024-01-16T08:22:17;1999.90;;;999.90;;
74401;SDS011;62837;51.082;13.744;2024-01-16T08:24:47;1999.90;;;999.90;;
74401;SDS011;62837;51.082;13.744;2024-01-16T08:27:18;1999.90;;;999.90;;
74401;SDS011;62837;51.082;13.744;2024-01-16T08:29:49;1999.90;;;999.90;;
74401;SDS011;62837;51.082;13.744;2024-01-16T08:32:20;1999.90;;;999.90;;
74401;SDS011;62837;51.082;13.744;2024-01-16T08:34:51;1999.90;;;999.90;;
74401;SDS011;62837;51.082;13.744;2024-01-16T08:37:22;1999.90;;;999.90;;
74401;SDS011;62837;51.082;13.744;2024-01-16T08:39:54;1999.90;;;999.90;;
74401;SDS011;62837;51.082;13.744;2024-01-16T08:42:25;1999.90;;;999.90;;
74401;SDS011;62837;51.082;13.744;2024-01-16T08:44:56;1999.90;;;999.90;;
74401;SDS011;62837;51.082;13.744;2024-01-16T08:47:27;1999.90;;;999.90;;
74401;SDS011;62837;51.082;13.744;2024-01-16T08:49:58;1999.90;;;999.90;;
74401;SDS011;62837;51.082;13.744;2024-01-16T08:52:30;1999.90;;;999.90;;
74401;SDS011;62837;51.082;13.744;2024-01-16T08:55:01;1999.90;;;999.90;;
74401;SDS011;62837;51.082;13.744;2024-01-16T08:57:33;1999.90;;;999.90;;
74401;SDS011;62837;51.082;13.744;2024-01-16T09:00:06;1999.90;;;999.90;;
74401;SDS011;62837;51.082;13.744;2024-01-16T09:02:38;1999.90;;;999.90;;
74401;SDS011;62837;51.082;13.744;2024-01-16T09:05:09;1999.90;;;999.90;;
74401;SDS011;62837;51.082;13.744;2024-01-16T09:07:41;1999.90;;;999.90;;
74401;SDS011;62837;51.082;13.744;2024-01-16T09:10:12;1999.90;;;999.90;;
74401;SDS011;62837;51.082;13.744;2024-01-16T09:12:43;1999.90;;;999.90;;
74401;SDS011;62837;51.082;13.744;2024-01-16T09:15:14;1999.90;;;999.90;;
74401;SDS011;62837;51.082;13.744;2024-01-16T09:17:45;1999.90;;;999.90;;
74401;SDS011;62837;51.082;13.744;2024-01-16T09:20:16;1999.90;;;999.90;;
74401;SDS011;62837;51.082;13.744;2024-01-16T09:22:47;1999.90;;;999.90;;
74401;SDS011;62837;51.082;13.744;2024-01-16T09:25:18;1999.90;;;999.90;;
74401;SDS011;62837;51.082;13.744;2024-01-16T09:27:51;1999.90;;;999.90;;
74401;SDS011;62837;51.082;13.744;2024-01-16T09:30:22;1999.90;;;999.90;;
74401;SDS011;62837;51.082;13.744;2024-01-16T09:32:53;1999.90;;;999.90;;
74401;SDS011;62837;51.082;13.744;2024-01-16T09:35:24;1999.90;;;999.90;;
74401;SDS011;62837;51.082;13.744;2024-01-16T09:37:55;1999.90;;;999.90;;
74401;SDS011;62837;51.082;13.744;2024-01-16T09:40:27;1999.90;;;999.90;;
74401;SDS011;62837;51.082;13.744;2024-01-16T09:42:58;1999.90;;;999.90;;
74401;SDS011;62837;51.082;13.744;2024-01-16T09:45:29;1999.90;;;999.90;;
74401;SDS011;62837;51.082;13.744;2024-01-16T09:48:02;1999.90;;;999.90;;
74401;SDS011;62837;51.082;13.744;2024-01-16T09:50:36;1999.90;;;999.90;;
74401;SDS011;62837;51.082;13.744;2024-01-16T09:53:07;1999.90;;;999.90;;
74401;SDS011;62837;51.082;13.744;2024-01-16T09:55:38;1999.90;;;999.90;;
74401;SDS011;62837;51.082;13.744;2024-01-16T09:58:09;1999.90;;;999.90;;
74401;SDS011;62837;51.082;13.744;2024-01-16T10:00:43;1999.90;;;999.90;;
74401;SDS011;62837;51.082;13.744;2024-01-16T10:03:16;1999.90;;;999.90;;
74401;SDS011;62837;51.082;13.744;2024-01-16T10:05:48;1999.90;;;999.90;;
74401;SDS011;62837;51.082;13.744;2024-01-16T10:08:20;1999.90;;;999.90;;
74401;SDS011;62837;51.082;13.744;2024-01-16T10:10:50;1999.90;;;999.90;;
74401;SDS011;62837;51.082;13.744;2024-01-16T10:13:21;1999.90;;;999.90;;
74401;SDS011;62837;51.082;13.744;2024-01-16T10:15:53;1999.90;;;999.90;;
74401;SDS011;62837;51.082;13.744;2024-01-16T10:18:25;1999.90;;;999.90;;
74401;SDS011;62837;51.082;13.744;2024-01-16T10:20:58;1999.90;;;999.90;;
74401;SDS011;62837;51.082;13.744;2024-01-16T10:23:30;1999.90;;;999.90;;
74401;SDS011;62837;51.082;13.744;2024-01-16T10:26:08;1999.90;;;999.90;;
74401;SDS011;62837;51.082;13.744;2024-01-16T10:28:42;1999.90;;;999.90;;
74401;SDS011;62837;51.082;13.744;2024-01-16T10:31:13;1999.90;;;999.90;;
74401;SDS011;62837;51.082;13.744;2024-01-16T10:33:45;1999.90;;;999.90;;
74401;SDS011;62837;51.082;13.744;2024-01-16T10:36:16;1999.90;;;999.90;;
74401;SDS011;62837;51.082;13.744;2024-01-16T10:38:48;1999.90;;;999.90;;
74401;SDS011;62837;51.082;13.744;2024-01-16T10:41:25;1999.90;;;999.90;;
74401;SDS011;62837;51.082;13.744;2024-01-16T10:44:04;1999.90;;;999.90;;
74401;SDS011;62837;51.082;13.744;2024-01-16T10:46:36;1999.90;;;999.90;;
74401;SDS011;62837;51.082;13.744;2024-01-16T10:49:07;1999.90;;;999.90;;
74401;SDS011;62837;51.082;13.744;2024-01-16T10:51:38;1999.90;;;999.90;;
74401;SDS011;62837;51.082;13.744;2024-01-16T10:54:12;1999.90;;;999.90;;
74401;SDS011;62837;51.082;13.744;2024-01-16T10:56:44;1999.90;;;999.90;;
74401;SDS011;62837;51.082;13.744;2024-01-16T10:59:18;1999.90;;;999.90;;
74401;SDS011;62837;51.082;13.744;2024-01-16T11:01:54;1999.90;;;999.90;;
74401;SDS011;62837;51.082;13.744;2024-01-16T11:04:28;1999.90;;;999.90;;
74401;SDS011;62837;51.082;13.744;2024-01-16T11:07:00;1999.90;;;999.90;;
74401;SDS011;62837;51.082;13.744;2024-01-16T11:09:33;1999.90;;;999.90;;
74401;SDS011;62837;51.082;13.744;2024-01-16T11:12:06;1999.90;;;999.90;;
74401;SDS011;62837;51.082;13.744;2024-01-16T11:17:09;1999.90;;;999.90;;
74401;SDS011;62837;51.082;13.744;2024-01-16T11:19:46;1999.90;;;999.90;;
74401;SDS011;62837;51.082;13.744;2024-01-16T11:22:21;1999.90;;;999.90;;
74401;SDS011;62837;51.082;13.744;2024-01-16T11:27:52;1999.90;;;999.90;;
74401;SDS011;62837;51.082;13.744;2024-01-16T11:30:30;1999.90;;;999.90;;
74401;SDS011;62837;51.082;13.744;2024-01-16T11:33:04;1999.90;;;999.90;;
74401;SDS011;62837;51.082;13.744;2024-01-16T11:35:35;1999.90;;;999.90;;
74401;SDS011;62837;51.082;13.744;2024-01-16T11:38:08;1999.90;;;999.90;;
74401;SDS011;62837;51.082;13.744;2024-01-16T11:40:44;1999.90;;;999.90;;
74401;SDS011;62837;51.082;13.744;2024-01-16T11:46:07;1999.90;;;999.90;;
74401;SDS011;62837;51.082;13.744;2024-01-16T11:48:38;1999.90;;;999.90;;
74401;SDS011;62837;51.082;13.744;2024-01-16T11:51:24;1999.90;;;999.90;;
74401;SDS011;62837;51.082;13.744;2024-01-16T11:53:55;1999.90;;;999.90;;
74401;SDS011;62837;51.082;13.744;2024-01-16T11:56:34;1999.90;;;999.90;;
74401;SDS011;62837;51.082;13.744;2024-01-16T12:02:29;1999.90;;;999.90;;
74401;SDS011;62837;51.082;13.744;2024-01-16T12:05:11;1999.90;;;999.90;;
74401;SDS011;62837;51.082;13.744;2024-01-16T12:07:49;1999.90;;;999.90;;
74401;SDS011;62837;51.082;13.744;2024-01-16T12:12:58;1999.90;;;999.90;;
74401;SDS011;62837;51.082;13.744;2024-01-16T12:15:32;1999.90;;;999.90;;
74401;SDS011;62837;51.082;13.744;2024-01-16T12:18:05;1999.90;;;999.90;;
74401;SDS011;62837;51.082;13.744;2024-01-16T12:20:53;1999.90;;;999.90;;
74401;SDS011;62837;51.082;13.744;2024-01-16T12:23:24;1999.90;;;999.90;;
74401;SDS011;62837;51.082;13.744;2024-01-16T12:25:55;1999.90;;;999.90;;
74401;SDS011;62837;51.082;13.744;2024-01-16T12:28:31;1999.90;;;999.90;;
74401;SDS011;62837;51.082;13.744;2024-01-16T12:31:02;1999.90;;;999.90;;
74401;SDS011;62837;51.082;13.744;2024-01-16T12:33:33;1999.90;;;999.90;;
74401;SDS011;62837;51.082;13.744;2024-01-16T12:36:05;1999.90;;;999.90;;
74401;SDS011;62837;51.082;13.744;2024-01-16T12:38:38;1999.90;;;999.90;;
74401;SDS011;62837;51.082;13.744;2024-01-16T12:41:10;1999.90;;;999.90;;
74401;SDS011;62837;51.082;13.744;2024-01-16T12:43:41;1999.90;;;999.90;;
74401;SDS011;62837;51.082;13.744;2024-01-16T12:46:14;1999.90;;;999.90;;
74401;SDS011;62837;51.082;13.744;2024-01-16T12:48:46;1999.90;;;999.90;;
74401;SDS011;62837;51.082;13.744;2024-01-16T12:51:30;1999.90;;;999.90;;
74401;SDS011;62837;51.082;13.744;2024-01-16T12:54:12;1999.90;;;999.90;;
74401;SDS011;62837;51.082;13.744;2024-01-16T12:56:45;1999.90;;;999.90;;
74401;SDS011;62837;51.082;13.744;2024-01-16T12:59:17;1999.90;;;999.90;;
74401;SDS011;62837;51.082;13.744;2024-01-16T13:01:47;1999.90;;;999.90;;
74401;SDS011;62837;51.082;13.744;2024-01-16T13:04:19;1999.90;;;999.90;;
74401;SDS011;62837;51.082;13.744;2024-01-16T13:06:50;1999.90;;;999.90;;
74401;SDS011;62837;51.082;13.744;2024-01-16T13:09:29;1999.90;;;999.90;;
74401;SDS011;62837;51.082;13.744;2024-01-16T13:12:00;1999.90;;;999.90;;
74401;SDS011;62837;51.082;13.744;2024-01-16T13:14:31;1999.90;;;999.90;;
74401;SDS011;62837;51.082;13.744;2024-01-16T13:17:04;1999.90;;;999.90;;
74401;SDS011;62837;51.082;13.744;2024-01-16T13:19:36;1999.90;;;999.90;;
74401;SDS011;62837;51.082;13.744;2024-01-16T13:22:09;1999.90;;;999.90;;
74401;SDS011;62837;51.082;13.744;2024-01-16T13:24:40;1999.90;;;999.90;;
74401;SDS011;62837;51.082;13.744;2024-01-16T13:27:25;1999.90;;;999.90;;
74401;SDS011;62837;51.082;13.744;2024-01-16T13:29:57;1999.90;;;999.90;;
74401;SDS011;62837;51.082;13.744;2024-01-16T13:32:29;1999.90;;;999.90;;
74401;SDS011;62837;51.082;13.744;2024-01-16T13:35:06;1999.90;;;999.90;;
74401;SDS011;62837;51.082;13.744;2024-01-16T13:37:40;1999.90;;;999.90;;
74401;SDS011;62837;51.082;13.744;2024-01-16T13:40:11;1999.90;;;999.90;;
74401;SDS011;62837;51.082;13.744;2024-01-16T13:42:49;1999.90;;;999.90;;
74401;SDS011;62837;51.082;13.744;2024-01-16T13:45:20;1999.90;;;999.90;;
74401;SDS011;62837;51.082;13.744;2024-01-16T13:47:52;1999.90;;;999.90;;
74401;SDS011;62837;51.082;13.744;2024-01-16T13:50:23;1999.90;;;999.90;;
74401;SDS011;62837;51.082;13.744;2024-01-16T13:52:54;1999.90;;;999.90;;
74401;SDS011;62837;51.082;13.744;2024-01-16T14:16:57;6.90;;;1.70;;
74401;SDS011;62837;51.082;13.744;2024-01-16T14:19:29;7.10;;;2.00;;
74401;SDS011;62837;51.082;13.744;2024-01-16T14:22:00;6.90;;;1.80;;
74401;SDS011;62837;51.082;13.744;2024-01-16T14:24:31;5.70;;;1.50;;
74401;SDS011;62837;51.082;13.744;2024-01-16T14:27:02;5.80;;;1.50;;
74401;SDS011;62837;51.082;13.744;2024-01-16T14:29:35;4.80;;;1.20;;
74401;SDS011;62837;51.082;13.744;2024-01-16T14:32:08;8.00;;;1.60;;
74401;SDS011;62837;51.082;13.744;2024-01-16T14:34:39;6.20;;;1.10;;
74401;SDS011;62837;51.082;13.744;2024-01-16T14:37:11;5.90;;;1.30;;